Time;durP1;ratioP1;P1;durP2;ratioP2;P2;SDS_P1;SDS_P2;PMS_P1;PMS_P2;Temp;Humidity;BMP_temperature;BMP_pressure;BME280_temperature;BME280_humidity;BME280_pressure;Samples;Min_cycle;Max_cycle;Signal;HPM_P1;HPM_P2
2023/12/29 00:02:15;;;;;;;1.48;1.35;;;3.40;99.90;;;;;;6259730;22;20182;-82
2023/12/29 00:04:42;;;;;;;1.63;1.52;;;3.30;99.90;;;;;;6285977;22;20224;-81
2023/12/29 00:07:09;;;;;;;0.70;0.70;;;3.30;99.90;;;;;;6286004;22;20194;-82
2023/12/29 00:09:40;;;;;;;0.82;0.82;;;3.20;99.90;;;;;;6285635;22;20217;-83
2023/12/29 00:12:08;;;;;;;1.05;1.05;;;3.20;99.90;;;;;;6285597;22;20159;-82
2023/12/29 00:14:40;;;;;;;2.60;2.40;;;3.20;99.90;;;;;;6285503;22;20178;-82
2023/12/29 00:17:07;;;;;;;3.15;2.20;;;3.20;99.90;;;;;;6285655;22;20209;-83
2023/12/29 00:19:34;;;;;;;1.33;1.33;;;3.10;99.90;;;;;;6285917;22;20175;-83
2023/12/29 00:22:02;;;;;;;1.98;1.42;;;3.10;99.90;;;;;;6258848;22;20203;-82
2023/12/29 00:24:33;;;;;;;0.98;0.98;;;3.50;99.90;;;;;;6258763;22;20360;-82
2023/12/29 00:27:01;;;;;;;1.08;1.08;;;3.20;99.90;;;;;;6285389;22;20170;-83
2023/12/29 00:29:32;;;;;;;2.13;2.03;;;3.20;99.90;;;;;;6286365;22;20178;-82
2023/12/29 00:32:02;;;;;;;0.70;0.70;;;3.20;99.90;;;;;;6285892;22;20190;-83
2023/12/29 00:34:30;;;;;;;1.38;1.38;;;3.30;99.90;;;;;;6286142;22;20178;-83
2023/12/29 00:36:58;;;;;;;2.10;2.00;;;3.30;99.90;;;;;;6285458;22;20231;-83
2023/12/29 00:39:29;;;;;;;0.82;0.82;;;3.40;99.90;;;;;;6286118;22;20171;-82
2023/12/29 00:41:57;;;;;;;1.60;1.50;;;3.50;99.90;;;;;;6286664;22;20167;-81
2023/12/29 00:44:24;;;;;;;2.53;2.42;;;3.50;99.90;;;;;;6285765;22;20167;-82
2023/12/29 00:46:51;;;;;;;3.80;1.77;;;3.60;99.90;;;;;;6286321;22;20244;-83
2023/12/29 00:49:18;;;;;;;2.35;2.25;;;3.70;99.90;;;;;;6286541;22;20171;-82
2023/12/29 00:51:47;;;;;;;1.10;1.10;;;3.30;99.90;;;;;;6286009;22;20224;-82
2023/12/29 00:54:15;;;;;;;5.18;2.97;;;3.20;99.90;;;;;;6285552;22;20213;-82
2023/12/29 00:56:49;;;;;;;0.73;0.73;;;3.30;99.90;;;;;;6285338;22;20502;-83
2023/12/29 00:59:18;;;;;;;4.32;1.33;;;3.30;99.90;;;;;;6258867;22;20195;-82
2023/12/29 01:01:45;;;;;;;0.77;0.77;;;3.30;99.90;;;;;;6285329;22;20472;-82
2023/12/29 01:04:13;;;;;;;0.77;0.77;;;3.50;99.90;;;;;;6285276;22;20220;-82
2023/12/29 01:06:40;;;;;;;4.93;2.90;;;3.40;99.90;;;;;;6285111;22;20174;-82
2023/12/29 01:09:11;;;;;;;3.25;1.63;;;3.60;99.90;;;;;;6285663;22;20435;-83
2023/12/29 01:11:38;;;;;;;2.17;1.98;;;3.40;99.90;;;;;;6284961;22;20159;-82
2023/12/29 01:14:05;;;;;;;0.80;0.80;;;3.20;99.90;;;;;;6285698;22;20171;-83
2023/12/29 01:16:32;;;;;;;3.28;2.28;;;3.00;99.90;;;;;;6284922;22;20181;-84
2023/12/29 01:18:59;;;;;;;1.15;1.15;;;3.00;99.90;;;;;;6286578;22;20175;-84
2023/12/29 01:21:27;;;;;;;3.40;3.20;;;3.00;99.90;;;;;;6285754;22;20178;-85
2023/12/29 01:23:54;;;;;;;1.55;1.50;;;3.00;99.90;;;;;;6287859;22;20170;-83
2023/12/29 01:26:21;;;;;;;0.65;0.63;;;3.00;99.90;;;;;;6286319;22;20175;-83
2023/12/29 01:28:48;;;;;;;2.95;2.50;;;3.10;99.90;;;;;;6285796;22;20229;-83
2023/12/29 01:31:15;;;;;;;1.40;1.30;;;3.00;99.90;;;;;;6257070;22;20170;-84
2023/12/29 01:33:43;;;;;;;1.33;1.23;;;3.10;99.90;;;;;;6284500;22;20178;-82
2023/12/29 01:36:17;;;;;;;0.65;0.65;;;3.00;99.90;;;;;;6284935;22;20170;-81
2023/12/29 01:38:46;;;;;;;5.38;2.30;;;3.10;99.90;;;;;;6287092;22;20205;-83
2023/12/29 01:41:14;;;;;;;0.90;0.85;;;3.20;99.90;;;;;;6284971;22;20242;-83
2023/12/29 01:43:56;;;;;;;3.55;3.33;;;3.30;99.90;;;;;;6291734;22;20182;-84
2023/12/29 01:46:33;;;;;;;2.17;2.00;;;3.40;99.90;;;;;;6303582;22;20166;-82
2023/12/29 01:49:01;;;;;;;1.00;1.00;;;3.40;99.90;;;;;;6274840;22;20197;-82
2023/12/29 01:51:28;;;;;;;1.45;1.45;;;3.70;99.90;;;;;;6299999;22;20201;-84
2023/12/29 01:53:57;;;;;;;1.17;1.17;;;3.90;99.90;;;;;;6262682;22;20175;-83
2023/12/29 01:56:25;;;;;;;0.40;0.40;;;3.90;99.90;;;;;;6286732;22;20182;-81
2023/12/29 01:58:55;;;;;;;0.38;0.38;;;3.70;99.90;;;;;;6286216;22;20234;-84
2023/12/29 02:01:39;;;;;;;3.70;0.98;;;3.60;99.90;;;;;;6261924;22;20160;-83
2023/12/29 02:04:07;;;;;;;1.55;1.45;;;3.60;99.90;;;;;;6285175;22;20201;-83
2023/12/29 02:06:35;;;;;;;1.40;1.30;;;3.70;99.90;;;;;;6285136;22;20186;-83
2023/12/29 02:09:04;;;;;;;1.48;1.38;;;3.50;99.90;;;;;;6260819;22;20222;-82
2023/12/29 02:11:31;;;;;;;1.17;1.13;;;3.30;99.90;;;;;;6285713;22;20178;-84
2023/12/29 02:13:59;;;;;;;4.07;2.42;;;3.20;99.90;;;;;;6258758;22;20199;-83
2023/12/29 02:16:42;;;;;;;2.15;1.70;;;3.20;99.90;;;;;;6258603;22;20175;-83
2023/12/29 02:19:40;;;;;;;0.82;0.82;;;3.20;99.90;;;;;;6285403;22;20163;-82
2023/12/29 02:22:08;;;;;;;1.63;1.52;;;3.40;99.90;;;;;;6284202;22;20178;-80
2023/12/29 02:24:37;;;;;;;0.65;0.65;;;3.40;99.90;;;;;;6285956;22;20175;-83
2023/12/29 02:27:26;;;;;;;0.50;0.50;;;3.30;99.90;;;;;;6286220;22;20198;-82
2023/12/29 02:30:13;;;;;;;0.75;0.75;;;3.10;99.90;;;;;;6258891;22;20160;-83
2023/12/29 02:32:44;;;;;;;3.83;1.60;;;3.10;99.90;;;;;;6233973;22;20225;-83
2023/12/29 02:35:15;;;;;;;0.60;0.60;;;3.10;99.90;;;;;;6285222;22;20419;-82
2023/12/29 02:37:43;;;;;;;1.17;1.17;;;3.00;99.90;;;;;;6284837;22;20183;-82
2023/12/29 02:40:11;;;;;;;0.50;0.50;;;2.90;99.90;;;;;;6285265;22;20236;-82
2023/12/29 02:42:38;;;;;;;0.68;0.68;;;2.90;99.90;;;;;;6257798;22;20178;-81
2023/12/29 02:45:05;;;;;;;0.93;0.93;;;2.90;99.90;;;;;;6284496;22;20190;-82
2023/12/29 02:47:32;;;;;;;2.35;2.15;;;2.80;99.90;;;;;;6284293;22;20242;-82
2023/12/29 02:49:59;;;;;;;0.50;0.50;;;2.80;99.90;;;;;;6284907;22;20183;-82
2023/12/29 02:52:27;;;;;;;0.65;0.65;;;2.70;99.90;;;;;;6284496;22;20178;-82
2023/12/29 02:54:53;;;;;;;0.52;0.52;;;2.70;99.90;;;;;;6287422;22;20174;-83
2023/12/29 02:57:21;;;;;;;0.70;0.70;;;2.70;99.90;;;;;;6290798;22;20246;-83
2023/12/29 02:59:47;;;;;;;0.77;0.77;;;2.90;99.90;;;;;;6286456;22;20171;-83
2023/12/29 03:02:15;;;;;;;1.85;1.75;;;2.90;99.90;;;;;;6284489;22;20472;-83
2023/12/29 03:04:42;;;;;;;2.63;2.28;;;2.90;99.90;;;;;;6273840;22;20206;-83
2023/12/29 03:07:10;;;;;;;0.88;0.88;;;3.00;99.90;;;;;;6304570;22;20159;-82
2023/12/29 03:09:37;;;;;;;0.85;0.85;;;2.90;99.90;;;;;;6305929;22;20197;-83
2023/12/29 03:12:04;;;;;;;0.60;0.60;;;2.90;99.90;;;;;;6294079;22;20202;-82
2023/12/29 03:14:32;;;;;;;0.65;0.65;;;3.00;99.90;;;;;;6286718;22;20201;-82
2023/12/29 03:16:59;;;;;;;0.90;0.90;;;2.90;99.90;;;;;;6287010;22;20190;-83
2023/12/29 03:19:27;;;;;;;0.73;0.73;;;2.90;99.90;;;;;;6287027;22;20198;-83
2023/12/29 03:21:54;;;;;;;0.50;0.50;;;2.90;99.90;;;;;;6286768;22;20175;-83
2023/12/29 03:24:22;;;;;;;0.75;0.75;;;2.90;99.90;;;;;;6286635;22;20262;-83
2023/12/29 03:26:49;;;;;;;0.70;0.70;;;3.00;99.90;;;;;;6286907;22;20221;-82
2023/12/29 03:29:16;;;;;;;5.80;2.45;;;3.00;99.90;;;;;;6259700;22;20215;-83
2023/12/29 03:31:43;;;;;;;1.15;1.05;;;3.10;99.90;;;;;;6259851;22;20171;-84
2023/12/29 03:34:09;;;;;;;1.13;1.13;;;3.00;99.90;;;;;;6286602;22;20202;-82
2023/12/29 03:36:37;;;;;;;1.40;1.25;;;3.00;99.90;;;;;;6286425;22;20178;-83
2023/12/29 03:39:04;;;;;;;2.70;2.50;;;3.10;99.90;;;;;;6286006;22;20190;-83
2023/12/29 03:41:32;;;;;;;0.30;0.30;;;3.20;99.90;;;;;;6287110;22;20170;-82
2023/12/29 03:43:59;;;;;;;0.50;0.50;;;3.20;99.90;;;;;;6286157;22;20213;-83
2023/12/29 03:46:26;;;;;;;0.77;0.77;;;3.30;99.90;;;;;;6286199;22;20204;-81
2023/12/29 03:48:53;;;;;;;0.65;0.65;;;3.20;99.90;;;;;;6286690;22;20191;-83
2023/12/29 03:51:21;;;;;;;0.50;0.50;;;3.40;99.90;;;;;;6286549;22;20170;-82
2023/12/29 03:53:49;;;;;;;0.73;0.73;;;3.40;99.90;;;;;;6286332;22;20558;-84
2023/12/29 03:56:18;;;;;;;1.02;1.02;;;3.50;99.90;;;;;;6286362;22;20178;-83
2023/12/29 03:58:46;;;;;;;1.85;1.60;;;3.60;99.90;;;;;;6285829;22;20185;-82
2023/12/29 04:01:15;;;;;;;6.93;1.58;;;3.50;99.90;;;;;;6286256;22;20175;-83
2023/12/29 04:03:44;;;;;;;1.08;1.08;;;3.50;99.90;;;;;;6259556;22;20182;-82
2023/12/29 04:06:11;;;;;;;0.52;0.52;;;3.40;99.90;;;;;;6287520;22;20537;-83
2023/12/29 04:08:38;;;;;;;0.60;0.60;;;3.50;99.90;;;;;;6287878;22;20429;-82
2023/12/29 04:11:06;;;;;;;0.82;0.82;;;3.40;99.90;;;;;;6286184;22;20178;-82
2023/12/29 04:13:33;;;;;;;1.20;1.10;;;3.40;99.90;;;;;;6286215;22;20171;-82
2023/12/29 04:16:00;;;;;;;0.95;0.75;;;3.40;99.90;;;;;;6285937;22;20250;-81
2023/12/29 04:18:28;;;;;;;0.50;0.50;;;3.50;99.90;;;;;;6285690;22;20181;-83
2023/12/29 04:20:56;;;;;;;1.48;1.45;;;3.60;99.90;;;;;;6286268;22;20164;-78
2023/12/29 04:23:23;;;;;;;0.88;0.88;;;3.60;99.90;;;;;;6259142;22;20181;-82
2023/12/29 04:25:50;;;;;;;0.98;0.98;;;3.80;99.90;;;;;;6285763;22;20251;-84
2023/12/29 04:28:17;;;;;;;2.22;2.13;;;3.50;99.90;;;;;;6286439;22;20209;-83
2023/12/29 04:30:44;;;;;;;1.25;1.25;;;3.50;99.90;;;;;;6286629;22;20191;-82
2023/12/29 04:33:11;;;;;;;0.40;0.40;;;3.50;99.90;;;;;;6259949;22;20179;-83
2023/12/29 04:35:38;;;;;;;0.40;0.40;;;3.40;99.90;;;;;;6287320;22;20171;-82
2023/12/29 04:38:06;;;;;;;0.88;0.88;;;3.40;99.90;;;;;;6286219;22;20243;-83
2023/12/29 04:40:33;;;;;;;1.35;1.25;;;3.50;99.90;;;;;;6287374;22;20171;-83
2023/12/29 04:43:00;;;;;;;0.38;0.38;;;3.60;99.90;;;;;;6285723;22;20178;-82
2023/12/29 04:45:28;;;;;;;0.95;0.95;;;3.40;99.90;;;;;;6259787;22;20171;-83
2023/12/29 04:47:56;;;;;;;0.30;0.30;;;3.50;99.90;;;;;;6285724;22;20171;-82
2023/12/29 04:50:23;;;;;;;0.52;0.52;;;3.70;99.90;;;;;;6286033;22;20227;-85
2023/12/29 04:52:50;;;;;;;0.40;0.40;;;3.70;99.90;;;;;;6259684;22;20213;-84
2023/12/29 04:55:17;;;;;;;0.90;0.90;;;3.50;99.90;;;;;;6287738;22;20175;-82
2023/12/29 04:57:45;;;;;;;0.57;0.57;;;3.30;99.90;;;;;;6287378;22;20175;-84
2023/12/29 05:00:14;;;;;;;1.35;1.25;;;3.30;99.90;;;;;;6286935;22;20175;-85
2023/12/29 05:02:42;;;;;;;1.48;1.38;;;3.30;99.90;;;;;;6285771;22;20209;-82
2023/12/29 05:05:09;;;;;;;0.60;0.60;;;3.50;99.90;;;;;;6285714;22;20175;-82
2023/12/29 05:07:36;;;;;;;1.42;1.20;;;3.50;99.90;;;;;;6285584;22;20175;-83
2023/12/29 05:10:04;;;;;;;0.50;0.50;;;3.60;99.90;;;;;;6287511;22;20191;-83
2023/12/29 05:12:30;;;;;;;0.82;0.82;;;3.70;99.90;;;;;;6286058;22;20159;-83
2023/12/29 05:15:00;;;;;;;0.40;0.40;;;3.70;99.90;;;;;;6286699;22;20190;-83
2023/12/29 05:17:27;;;;;;;1.23;1.15;;;3.70;99.90;;;;;;6286379;22;20475;-83
2023/12/29 05:19:54;;;;;;;0.60;0.60;;;3.80;99.90;;;;;;6258982;22;20179;-82
2023/12/29 05:22:22;;;;;;;2.40;2.15;;;3.90;99.90;;;;;;6285641;22;20415;-82
2023/12/29 05:24:49;;;;;;;1.10;1.00;;;3.80;99.90;;;;;;6286309;22;20190;-84
2023/12/29 05:27:18;;;;;;;0.70;0.70;;;3.90;99.90;;;;;;6285251;22;20370;-85
2023/12/29 05:29:45;;;;;;;0.50;0.50;;;3.90;99.90;;;;;;6261970;22;20207;-84
2023/12/29 05:32:12;;;;;;;1.60;1.55;;;3.80;99.90;;;;;;6285377;22;20170;-83
2023/12/29 05:34:39;;;;;;;0.40;0.40;;;3.90;99.90;;;;;;6286349;22;20171;-84
2023/12/29 05:37:06;;;;;;;6.32;2.35;;;3.90;99.90;;;;;;6286263;22;20171;-82
2023/12/29 05:39:33;;;;;;;1.23;1.13;;;3.80;99.90;;;;;;6286859;22;20167;-84
2023/12/29 05:42:00;;;;;;;0.60;0.60;;;3.80;99.90;;;;;;6260494;22;20258;-84
2023/12/29 05:44:27;;;;;;;2.88;1.45;;;3.90;99.90;;;;;;6260056;22;20182;-83
2023/12/29 05:46:54;;;;;;;1.20;1.10;;;3.80;99.90;;;;;;6285511;22;20198;-83
2023/12/29 05:49:25;;;;;;;3.75;1.95;;;3.80;99.90;;;;;;6285029;22;20193;-83
2023/12/29 05:51:52;;;;;;;1.08;1.08;;;4.00;99.90;;;;;;6286154;22;20159;-84
2023/12/29 05:54:20;;;;;;;1.60;1.50;;;4.00;99.90;;;;;;6285276;22;20337;-83
2023/12/29 05:56:47;;;;;;;0.63;0.63;;;4.10;99.90;;;;;;6285137;22;20477;-84
2023/12/29 05:59:14;;;;;;;2.00;1.88;;;4.20;99.90;;;;;;6284936;22;20175;-83
2023/12/29 06:01:41;;;;;;;1.38;1.35;;;4.00;99.90;;;;;;6285569;22;20233;-83
2023/12/29 06:04:08;;;;;;;2.33;2.15;;;3.90;99.90;;;;;;6258123;22;20177;-83
2023/12/29 06:06:35;;;;;;;5.43;1.60;;;3.80;99.90;;;;;;6285280;22;20182;-84
2023/12/29 06:09:03;;;;;;;0.40;0.40;;;3.90;99.90;;;;;;6285847;22;20191;-83
2023/12/29 06:11:29;;;;;;;1.50;1.35;;;3.90;99.90;;;;;;6287417;22;20599;-83
2023/12/29 06:13:57;;;;;;;0.80;0.80;;;3.80;99.90;;;;;;6287634;22;20475;-85
2023/12/29 06:16:25;;;;;;;3.80;1.80;;;3.80;99.90;;;;;;6293027;22;20179;-84
2023/12/29 06:18:53;;;;;;;1.10;0.90;;;3.90;99.90;;;;;;6278419;22;20161;-83
2023/12/29 06:21:20;;;;;;;1.38;1.35;;;3.90;99.90;;;;;;6278132;22;20159;-83
2023/12/29 06:23:46;;;;;;;0.60;0.60;;;4.00;99.90;;;;;;6304545;22;20231;-83
2023/12/29 06:26:18;;;;;;;0.85;0.85;;;3.90;99.90;;;;;;6302530;22;20170;-82
2023/12/29 06:28:46;;;;;;;2.60;2.40;;;3.90;99.90;;;;;;6292527;22;20187;-84
2023/12/29 06:31:14;;;;;;;2.03;1.92;;;4.10;99.90;;;;;;6299864;22;20182;-85
2023/12/29 06:33:42;;;;;;;2.05;1.95;;;4.10;99.90;;;;;;6287398;22;20506;-83
2023/12/29 06:36:10;;;;;;;0.57;0.57;;;4.30;99.90;;;;;;6258589;22;20206;-83
2023/12/29 06:38:37;;;;;;;0.93;0.93;;;4.30;99.90;;;;;;6258545;22;20213;-84
2023/12/29 06:41:05;;;;;;;1.38;1.38;;;4.20;99.90;;;;;;6258602;22;20160;-81
2023/12/29 06:43:32;;;;;;;0.75;0.75;;;4.30;99.90;;;;;;6286922;22;20171;-82
2023/12/29 06:45:59;;;;;;;1.35;1.25;;;4.10;99.90;;;;;;6287529;22;20171;-82
2023/12/29 06:48:26;;;;;;;1.10;1.10;;;4.00;99.90;;;;;;6288112;22;20177;-84
2023/12/29 06:50:53;;;;;;;1.05;1.05;;;4.30;99.90;;;;;;6286943;22;20178;-82
2023/12/29 06:53:20;;;;;;;1.10;1.10;;;4.10;99.90;;;;;;6286948;22;20205;-83
2023/12/29 06:55:47;;;;;;;2.35;2.25;;;4.20;99.90;;;;;;6287239;22;20354;-82
2023/12/29 06:58:14;;;;;;;0.60;0.60;;;4.20;99.90;;;;;;6286547;22;20198;-82
2023/12/29 07:00:41;;;;;;;0.45;0.45;;;4.20;99.90;;;;;;6286577;22;20325;-84
2023/12/29 07:03:14;;;;;;;2.17;2.08;;;4.20;99.90;;;;;;6286677;22;20391;-84
2023/12/29 07:05:41;;;;;;;2.97;2.20;;;4.20;99.90;;;;;;6286891;22;20182;-81
2023/12/29 07:08:08;;;;;;;6.00;0.75;;;4.40;99.90;;;;;;6286506;22;20187;-82
2023/12/29 07:10:35;;;;;;;1.15;1.15;;;4.50;99.90;;;;;;6261697;22;20191;-83
2023/12/29 07:13:02;;;;;;;0.70;0.70;;;4.60;99.90;;;;;;6286595;22;20225;-81
2023/12/29 07:15:30;;;;;;;1.08;1.05;;;4.70;99.90;;;;;;6285954;22;20178;-82
2023/12/29 07:17:57;;;;;;;1.35;1.30;;;4.70;99.90;;;;;;6285453;22;20211;-82
2023/12/29 07:20:25;;;;;;;0.40;0.40;;;4.60;99.90;;;;;;6260089;22;20171;-82
2023/12/29 07:22:52;;;;;;;0.40;0.40;;;4.70;99.90;;;;;;6286769;22;20182;-82
2023/12/29 07:25:19;;;;;;;0.40;0.40;;;4.60;99.90;;;;;;6287249;22;20234;-81
2023/12/29 07:27:46;;;;;;;1.55;1.48;;;4.70;99.90;;;;;;6259317;22;20614;-82
2023/12/29 07:30:14;;;;;;;0.50;0.50;;;4.90;99.90;;;;;;6286007;22;20597;-82
2023/12/29 07:32:41;;;;;;;1.58;1.48;;;4.90;99.90;;;;;;6286790;22;20194;-82
2023/12/29 07:35:08;;;;;;;0.40;0.40;;;4.80;99.90;;;;;;6260268;22;20532;-81
2023/12/29 07:37:35;;;;;;;0.63;0.63;;;4.90;99.90;;;;;;6286259;22;20206;-82
2023/12/29 07:40:03;;;;;;;1.13;1.13;;;4.80;99.90;;;;;;6286244;22;20170;-81
2023/12/29 07:42:32;;;;;;;0.82;0.82;;;5.00;99.90;;;;;;6286757;22;20175;-80
2023/12/29 07:44:59;;;;;;;2.35;0.88;;;5.00;99.90;;;;;;6286746;22;20235;-81
2023/12/29 07:47:26;;;;;;;0.82;0.82;;;4.90;99.90;;;;;;6286543;22;20175;-82
2023/12/29 07:49:53;;;;;;;4.25;1.95;;;5.00;99.90;;;;;;6267898;22;20195;-81
2023/12/29 07:52:21;;;;;;;0.80;0.80;;;5.10;99.90;;;;;;6278686;22;20183;-82
2023/12/29 07:54:49;;;;;;;0.90;0.90;;;5.20;99.90;;;;;;6279302;22;20190;-82
2023/12/29 07:57:16;;;;;;;1.10;1.10;;;5.30;99.90;;;;;;6301659;22;20460;-83
2023/12/29 07:59:43;;;;;;;1.50;1.42;;;5.30;99.90;;;;;;6288058;22;20212;-82
2023/12/29 08:02:10;;;;;;;0.80;0.80;;;5.40;99.90;;;;;;6286380;22;20175;-82
2023/12/29 08:04:38;;;;;;;0.93;0.93;;;5.60;99.90;;;;;;6286744;22;20183;-84
2023/12/29 08:07:05;;;;;;;0.65;0.65;;;5.50;99.90;;;;;;6286117;22;20187;-82
2023/12/29 08:09:32;;;;;;;1.05;1.05;;;5.70;99.90;;;;;;6286066;22;20186;-80
2023/12/29 08:12:00;;;;;;;0.50;0.50;;;5.70;99.90;;;;;;6285870;22;20171;-83
2023/12/29 08:14:28;;;;;;;1.40;1.40;;;5.80;99.90;;;;;;6286064;22;20656;-82
2023/12/29 08:16:56;;;;;;;0.77;0.77;;;5.90;99.90;;;;;;6286382;22;20178;-82
2023/12/29 08:19:23;;;;;;;1.05;1.05;;;6.00;99.90;;;;;;6286804;22;20530;-82
2023/12/29 08:21:51;;;;;;;0.50;0.50;;;6.00;99.90;;;;;;6287177;22;20352;-80
2023/12/29 08:24:20;;;;;;;0.40;0.40;;;6.20;99.90;;;;;;6287325;22;20234;-82
2023/12/29 08:26:47;;;;;;;0.40;0.40;;;6.20;99.90;;;;;;6287972;22;20182;-83
2023/12/29 08:29:14;;;;;;;0.75;0.75;;;6.20;99.90;;;;;;6287154;22;20215;-83
2023/12/29 08:31:43;;;;;;;2.25;2.15;;;6.50;99.90;;;;;;6286538;22;20171;-81
2023/12/29 08:34:12;;;;;;;0.50;0.50;;;6.70;99.90;;;;;;6260886;22;20155;-81
2023/12/29 08:36:40;;;;;;;0.55;0.55;;;6.70;99.90;;;;;;6295003;22;20238;-81
2023/12/29 08:39:07;;;;;;;0.43;0.43;;;6.80;99.90;;;;;;6289450;22;20203;-81
2023/12/29 08:41:35;;;;;;;1.17;1.17;;;7.00;99.90;;;;;;6260258;22;20175;-84
2023/12/29 08:44:03;;;;;;;0.40;0.40;;;7.10;99.90;;;;;;6286659;22;20191;-83
2023/12/29 08:46:29;;;;;;;0.40;0.40;;;7.10;99.90;;;;;;6285950;22;20178;-82
2023/12/29 08:48:56;;;;;;;0.50;0.50;;;7.30;99.90;;;;;;6258124;22;20502;-81
2023/12/29 08:51:24;;;;;;;0.65;0.65;;;7.40;99.90;;;;;;6286548;22;20179;-82
2023/12/29 08:53:51;;;;;;;0.55;0.55;;;7.40;99.90;;;;;;6285761;22;20191;-83
2023/12/29 08:56:18;;;;;;;0.40;0.40;;;7.60;99.90;;;;;;6285400;22;20238;-82
2023/12/29 08:58:45;;;;;;;0.88;0.82;;;7.70;99.90;;;;;;6286145;22;20179;-82
2023/12/29 09:01:12;;;;;;;0.40;0.40;;;7.80;99.90;;;;;;6286783;22;20206;-82
2023/12/29 09:03:39;;;;;;;0.60;0.60;;;7.90;99.90;;;;;;6286065;22;20479;-83
2023/12/29 09:06:08;;;;;;;0.80;0.80;;;8.20;99.90;;;;;;6257912;22;20490;-80
2023/12/29 09:08:35;;;;;;;1.05;1.05;;;8.20;99.90;;;;;;6286417;22;20190;-83
2023/12/29 09:11:03;;;;;;;0.50;0.50;;;8.30;99.90;;;;;;6285989;22;20517;-82
2023/12/29 09:13:31;;;;;;;0.50;0.50;;;8.30;99.90;;;;;;6259941;22;20518;-82
2023/12/29 09:15:58;;;;;;;1.42;1.33;;;8.40;99.90;;;;;;6286512;22;20178;-81
2023/12/29 09:18:26;;;;;;;0.50;0.50;;;8.50;99.90;;;;;;6293709;22;20171;-81
2023/12/29 09:20:53;;;;;;;0.50;0.50;;;8.60;99.90;;;;;;6302828;22;20175;-81
2023/12/29 09:23:20;;;;;;;0.50;0.50;;;8.60;99.90;;;;;;6304455;22;20159;-82
2023/12/29 09:25:49;;;;;;;0.80;0.80;;;8.70;99.90;;;;;;6297133;22;20178;-79
2023/12/29 09:28:16;;;;;;;0.60;0.60;;;8.90;99.90;;;;;;6286585;22;20234;-81
2023/12/29 09:30:43;;;;;;;0.40;0.40;;;9.00;99.90;;;;;;6258564;22;20353;-82
2023/12/29 09:33:12;;;;;;;0.40;0.40;;;9.20;99.90;;;;;;6285416;22;20195;-81
2023/12/29 09:35:39;;;;;;;0.50;0.50;;;9.10;99.90;;;;;;6285278;22;20171;-82
2023/12/29 09:38:06;;;;;;;0.50;0.50;;;9.20;99.90;;;;;;6258239;22;20179;-82
2023/12/29 09:40:34;;;;;;;0.50;0.50;;;9.30;99.90;;;;;;6287108;22;20182;-80
2023/12/29 09:43:03;;;;;;;0.50;0.50;;;9.40;99.90;;;;;;6285089;22;20184;-81
2023/12/29 09:45:37;;;;;;;0.40;0.40;;;9.40;99.90;;;;;;6286375;22;20209;-82
2023/12/29 09:48:07;;;;;;;0.50;0.50;;;9.50;99.90;;;;;;6285516;22;20163;-82
2023/12/29 09:50:35;;;;;;;0.50;0.50;;;9.80;99.90;;;;;;6258404;22;20214;-81
2023/12/29 09:53:03;;;;;;;0.43;0.43;;;9.70;99.90;;;;;;6285900;22;20400;-81
2023/12/29 09:55:31;;;;;;;1.35;1.25;;;9.80;99.90;;;;;;6258932;22;20178;-80
2023/12/29 09:57:59;;;;;;;1.67;1.55;;;9.80;99.90;;;;;;6286244;22;20171;-82
2023/12/29 10:00:27;;;;;;;0.60;0.60;;;9.90;99.90;;;;;;6287444;22;20175;-79
2023/12/29 10:02:54;;;;;;;0.50;0.50;;;9.80;99.90;;;;;;6286268;22;20363;-82
2023/12/29 10:05:21;;;;;;;0.50;0.50;;;9.90;99.90;;;;;;6285991;22;20182;-82
2023/12/29 10:07:50;;;;;;;0.50;0.50;;;10.00;99.90;;;;;;6258941;22;20177;-84
2023/12/29 10:10:19;;;;;;;0.68;0.68;;;9.90;99.90;;;;;;6285950;22;20248;-81
2023/12/29 10:12:48;;;;;;;0.60;0.60;;;10.00;99.90;;;;;;6285716;22;20206;-80
2023/12/29 10:15:40;;;;;;;0.70;0.70;;;9.90;99.90;;;;;;6285783;22;20154;-82
2023/12/29 10:18:18;;;;;;;0.70;0.70;;;10.00;99.90;;;;;;6287516;22;20181;-83
2023/12/29 10:20:58;;;;;;;0.50;0.50;;;10.00;99.90;;;;;;6287758;22;20150;-81
2023/12/29 10:23:43;;;;;;;1.30;1.25;;;10.10;99.90;;;;;;6289023;22;20230;-81
2023/12/29 10:26:11;;;;;;;0.80;0.80;;;10.10;99.90;;;;;;6261075;22;20163;-80
2023/12/29 10:28:39;;;;;;;0.50;0.50;;;10.30;99.90;;;;;;6260905;22;20202;-85
2023/12/29 10:31:06;;;;;;;0.50;0.50;;;10.40;99.90;;;;;;6290030;22;20388;-82
2023/12/29 10:33:33;;;;;;;0.50;0.50;;;10.40;99.90;;;;;;6287107;22;20190;-81
2023/12/29 10:36:07;;;;;;;1.20;1.20;;;10.60;99.90;;;;;;6260835;22;20201;-82
2023/12/29 10:38:34;;;;;;;0.57;0.57;;;10.60;99.90;;;;;;6260218;22;20201;-81
2023/12/29 10:41:18;;;;;;;0.70;0.70;;;10.60;99.90;;;;;;6287849;22;20220;-83
2023/12/29 10:43:54;;;;;;;0.70;0.70;;;10.60;99.90;;;;;;6260792;22;20178;-82
2023/12/29 10:46:25;;;;;;;0.50;0.50;;;10.80;99.90;;;;;;6287854;22;20170;-82
2023/12/29 10:48:53;;;;;;;1.00;0.90;;;10.60;99.90;;;;;;6287751;22;20184;-81
2023/12/29 10:51:27;;;;;;;0.60;0.60;;;10.50;99.90;;;;;;6288783;22;20515;-84
2023/12/29 10:53:58;;;;;;;0.50;0.50;;;10.40;99.90;;;;;;6299239;22;20155;-83
2023/12/29 10:56:26;;;;;;;0.50;0.50;;;10.50;99.90;;;;;;6298519;22;20166;-81
2023/12/29 10:59:02;;;;;;;0.60;0.60;;;10.70;99.90;;;;;;6273291;22;20175;-83
2023/12/29 11:01:31;;;;;;;0.50;0.50;;;10.90;99.90;;;;;;6294342;22;20186;-82
2023/12/29 11:04:00;;;;;;;0.50;0.50;;;10.90;99.90;;;;;;6262507;22;20179;-82
2023/12/29 11:06:31;;;;;;;0.40;0.40;;;10.80;99.90;;;;;;6288053;22;20498;-81
2023/12/29 11:08:58;;;;;;;2.10;1.95;;;10.80;99.90;;;;;;6287433;22;20203;-81
2023/12/29 11:11:25;;;;;;;0.50;0.50;;;10.70;99.90;;;;;;6287874;22;20199;-82
2023/12/29 11:13:53;;;;;;;0.50;0.50;;;10.70;99.90;;;;;;6289200;22;20187;-83
2023/12/29 11:16:22;;;;;;;0.50;0.50;;;10.80;99.90;;;;;;6288177;22;20355;-82
2023/12/29 11:18:53;;;;;;;0.50;0.50;;;10.80;99.90;;;;;;6289619;22;20171;-80
2023/12/29 11:21:22;;;;;;;0.68;0.68;;;10.80;99.90;;;;;;6288512;22;20163;-81
2023/12/29 11:23:50;;;;;;;0.80;0.80;;;10.80;99.90;;;;;;6289670;22;20205;-81
2023/12/29 11:26:18;;;;;;;0.50;0.50;;;10.90;99.90;;;;;;6288119;22;20198;-83
2023/12/29 11:28:48;;;;;;;0.93;0.93;;;10.90;99.90;;;;;;6260518;22;20237;-82
2023/12/29 11:31:17;;;;;;;0.68;0.68;;;10.70;99.90;;;;;;6286940;22;20195;-82
2023/12/29 11:34:00;;;;;;;0.60;0.60;;;10.60;99.90;;;;;;6260483;22;20174;-82
2023/12/29 11:36:37;;;;;;;0.70;0.70;;;10.60;99.90;;;;;;6287903;22;20173;-82
2023/12/29 11:39:20;;;;;;;0.60;0.60;;;10.60;99.90;;;;;;6286341;22;20178;-87
2023/12/29 11:42:06;;;;;;;0.98;0.93;;;10.60;99.90;;;;;;6287197;22;20249;-81
2023/12/29 11:44:33;;;;;;;0.95;0.95;;;10.60;99.90;;;;;;6260430;22;20169;-81
2023/12/29 11:47:00;;;;;;;0.50;0.50;;;10.50;99.90;;;;;;6259533;22;20197;-80
2023/12/29 11:50:02;;;;;;;1.33;1.23;;;10.50;99.90;;;;;;6287468;22;20175;-83
2023/12/29 11:52:39;;;;;;;0.50;0.50;;;10.40;99.90;;;;;;6286970;22;20202;-81
2023/12/29 11:55:14;;;;;;;0.70;0.70;;;10.50;99.90;;;;;;6286322;22;20159;-81
2023/12/29 11:57:42;;;;;;;0.60;0.60;;;10.40;99.90;;;;;;6285804;22;20193;-81
2023/12/29 12:00:10;;;;;;;0.50;0.50;;;10.40;99.90;;;;;;6286191;22;20220;-83
2023/12/29 12:02:39;;;;;;;0.50;0.50;;;10.60;99.90;;;;;;6288631;22;20171;-81
2023/12/29 12:05:09;;;;;;;0.50;0.50;;;10.70;99.90;;;;;;6287452;22;20175;-80
2023/12/29 12:07:36;;;;;;;2.03;1.90;;;10.90;99.90;;;;;;6287286;22;20175;-84
2023/12/29 12:10:22;;;;;;;1.00;0.93;;;10.80;99.90;;;;;;6287081;22;20262;-83
2023/12/29 12:12:51;;;;;;;7.82;2.13;;;10.70;99.90;;;;;;6287697;22;20198;-80
2023/12/29 12:15:29;;;;;;;0.77;0.77;;;10.70;99.90;;;;;;6286444;22;20171;-82
2023/12/29 12:17:57;;;;;;;0.50;0.50;;;10.60;99.90;;;;;;6286922;22;20170;-82
2023/12/29 12:20:25;;;;;;;0.50;0.50;;;10.80;99.90;;;;;;6292739;22;20230;-81
2023/12/29 12:23:00;;;;;;;0.77;0.77;;;10.70;99.90;;;;;;6303599;22;20270;-83
2023/12/29 12:25:30;;;;;;;0.52;0.52;;;10.80;99.90;;;;;;6303565;22;20185;-82
2023/12/29 12:27:58;;;;;;;0.50;0.50;;;10.80;99.90;;;;;;6270225;22;20222;-79
2023/12/29 12:30:25;;;;;;;0.50;0.50;;;10.90;99.90;;;;;;6286873;22;20198;-82
2023/12/29 12:32:58;;;;;;;1.15;1.15;;;10.90;99.90;;;;;;6289114;22;20175;-81
2023/12/29 12:35:26;;;;;;;0.50;0.50;;;10.90;99.90;;;;;;6302370;22;20181;-82
2023/12/29 12:38:13;;;;;;;0.50;0.50;;;10.90;99.90;;;;;;6303548;22;20261;-83
2023/12/29 12:40:41;;;;;;;0.60;0.60;;;10.90;99.90;;;;;;6304078;22;20205;-81
2023/12/29 12:43:08;;;;;;;0.60;0.60;;;11.00;99.90;;;;;;6288668;22;20406;-82
2023/12/29 12:45:46;;;;;;;0.93;0.60;;;11.00;99.90;;;;;;6261222;22;20175;-81
2023/12/29 12:48:23;;;;;;;0.60;0.60;;;11.00;99.90;;;;;;6289306;22;20159;-84
2023/12/29 12:50:50;;;;;;;0.50;0.50;;;11.00;99.90;;;;;;6299999;22;20190;-81
2023/12/29 12:53:21;;;;;;;0.50;0.50;;;10.90;99.90;;;;;;6297315;22;20183;-82
2023/12/29 12:55:52;;;;;;;0.73;0.73;;;10.90;99.90;;;;;;6295710;22;20159;-83
2023/12/29 12:58:22;;;;;;;1.00;1.00;;;11.00;99.90;;;;;;6269731;22;20167;-83
2023/12/29 13:00:51;;;;;;;0.90;0.90;;;10.90;99.90;;;;;;6296382;22;20163;-82
2023/12/29 13:03:22;;;;;;;0.50;0.50;;;10.90;99.90;;;;;;6296368;22;20163;-83
2023/12/29 13:05:49;;;;;;;1.02;1.02;;;10.90;99.90;;;;;;6268364;22;20175;-83